Time;durP1;ratioP1;P1;durP2;ratioP2;P2;SDS_P1;SDS_P2;PMS_P1;PMS_P2;Temp;Humidity;BMP_temperature;BMP_pressure;BME280_temperature;BME280_humidity;BME280_pressure;Samples;Min_cycle;Max_cycle;Signal;HPM_P1;HPM_P2
2021/03/21 01:13:47;;;;;;;0.50;0.50;;;4.20;99.90;;;;;;6105967;22;21122;-82
2021/03/21 01:16:19;;;;;;;0.50;0.50;;;4.20;99.90;;;;;;6254148;23;20163;-84
2021/03/21 01:18:48;;;;;;;0.50;0.50;;;4.50;99.90;;;;;;6257309;23;20164;-84
2021/03/21 01:21:19;;;;;;;0.50;0.50;;;6.20;99.90;;;;;;6253169;23;20195;-83
2021/03/21 01:23:45;;;;;;;0.50;0.50;;;5.60;99.90;;;;;;6252031;23;20229;-83
2021/03/21 01:26:13;;;;;;;0.50;0.50;;;3.90;99.90;;;;;;6254138;23;20239;-84
2021/03/21 01:28:40;;;;;;;0.50;0.50;;;5.00;99.90;;;;;;6252011;23;20175;-83
2021/03/21 01:31:09;;;;;;;0.50;0.50;;;4.00;99.90;;;;;;6253166;23;20172;-83
2021/03/21 01:33:36;;;;;;;0.50;0.50;;;4.10;99.90;;;;;;6254853;23;20192;-85
2021/03/21 01:36:05;;;;;;;0.50;0.50;;;3.10;99.90;;;;;;6260608;23;20176;-84
2021/03/21 02:44:35;;;;;;;0.50;0.50;;;4.60;99.90;;;;;;6086711;22;20195;31
2021/03/21 02:47:05;;;;;;;0.50;0.50;;;4.60;99.90;;;;;;6028891;23;20165;-82
2021/03/21 02:49:36;;;;;;;0.50;0.50;;;4.60;99.90;;;;;;6029170;23;20188;-83
2021/03/21 02:57:17;;;;;;;0.50;0.50;;;4.60;99.90;;;;;;6078829;22;20233;-82
2021/03/21 02:59:48;;;;;;;0.50;0.50;;;4.10;99.90;;;;;;6086981;23;20364;-83
2021/03/21 03:02:22;;;;;;;0.50;0.50;;;4.70;99.90;;;;;;6083785;23;20290;-83
2021/03/21 03:04:53;;;;;;;0.43;0.43;;;4.70;99.90;;;;;;6087357;23;20163;-82
2021/03/21 03:07:24;;;;;;;0.40;0.40;;;4.70;99.90;;;;;;6085851;23;20183;-82
2021/03/21 03:09:53;;;;;;;0.40;0.40;;;4.70;99.90;;;;;;6087843;23;20178;-81
2021/03/21 03:12:25;;;;;;;0.50;0.50;;;4.70;99.90;;;;;;6087771;23;20218;-82
2021/03/21 03:14:51;;;;;;;0.50;0.50;;;4.70;99.90;;;;;;6087830;23;20213;-82
2021/03/21 03:17:28;;;;;;;0.40;0.40;;;4.80;99.90;;;;;;6087887;23;20179;-82
2021/03/21 03:19:58;;;;;;;0.40;0.40;;;4.80;99.90;;;;;;6087791;23;20167;-82
2021/03/21 03:22:42;;;;;;;0.45;0.45;;;4.80;99.90;;;;;;6087747;23;20183;-82
2021/03/21 03:25:19;;;;;;;0.50;0.50;;;4.80;99.90;;;;;;6087888;23;20174;-82
2021/03/21 03:27:57;;;;;;;0.45;0.45;;;4.80;99.90;;;;;;6087567;23;20170;-82
2021/03/21 03:30:29;;;;;;;0.40;0.40;;;4.80;99.90;;;;;;6088062;23;20221;-82
2021/03/21 03:32:56;;;;;;;0.45;0.45;;;4.90;99.90;;;;;;6087788;23;20392;-82
2021/03/21 03:35:24;;;;;;;0.47;0.47;;;4.90;99.90;;;;;;6087216;23;20700;-82
2021/03/21 03:37:50;;;;;;;0.50;0.50;;;4.90;99.90;;;;;;6087479;23;20183;-82
2021/03/21 03:40:19;;;;;;;0.45;0.45;;;4.90;99.90;;;;;;6087239;23;20635;-82
2021/03/21 03:42:52;;;;;;;0.43;0.43;;;4.90;99.90;;;;;;6087174;23;20190;-82
2021/03/21 03:45:23;;;;;;;0.50;0.50;;;5.00;99.90;;;;;;6087750;23;20588;-83
2021/03/21 03:48:08;;;;;;;0.40;0.40;;;5.00;99.90;;;;;;6087646;23;20168;-82
2021/03/21 03:50:51;;;;;;;0.50;0.50;;;5.00;99.90;;;;;;6087461;23;20199;-82
2021/03/21 03:53:34;;;;;;;0.50;0.50;;;5.00;99.90;;;;;;6087326;23;20219;-83
2021/03/21 03:56:06;;;;;;;0.40;0.40;;;5.00;99.90;;;;;;6087140;23;20444;-82
2021/03/21 03:58:38;;;;;;;0.50;0.50;;;5.00;99.90;;;;;;6087053;23;20194;-82
2021/03/21 04:01:07;;;;;;;0.40;0.40;;;5.10;99.90;;;;;;6087604;23;20242;-82
2021/03/21 04:03:41;;;;;;;0.50;0.50;;;5.10;99.90;;;;;;6087804;23;20176;-82
2021/03/21 04:06:13;;;;;;;0.50;0.50;;;5.10;99.90;;;;;;6087449;23;20233;-82
2021/03/21 04:08:46;;;;;;;0.45;0.45;;;5.10;99.90;;;;;;6087533;23;20167;-83
2021/03/21 04:11:17;;;;;;;0.47;0.47;;;5.10;99.90;;;;;;6087764;23;20163;-83
2021/03/21 04:13:47;;;;;;;0.50;0.50;;;5.10;99.90;;;;;;6088017;23;20187;-83
2021/03/21 04:16:18;;;;;;;0.50;0.50;;;5.10;99.90;;;;;;6088071;23;20666;-83
2021/03/21 04:18:52;;;;;;;0.50;0.50;;;5.10;99.90;;;;;;6087537;23;20600;-82
2021/03/21 04:21:24;;;;;;;0.40;0.40;;;5.10;99.90;;;;;;6088604;23;20242;-82
2021/03/21 04:23:54;;;;;;;0.50;0.50;;;5.60;99.90;;;;;;6088380;23;20170;-83
2021/03/21 04:26:24;;;;;;;0.50;0.50;;;5.10;99.90;;;;;;6087267;23;20246;-83
2021/03/21 04:28:56;;;;;;;0.50;0.50;;;5.00;99.90;;;;;;6088377;23;20183;-83
2021/03/21 04:31:22;;;;;;;0.50;0.50;;;5.00;99.90;;;;;;6088531;23;20366;-83
2021/03/21 04:33:53;;;;;;;0.50;0.50;;;5.00;99.90;;;;;;6088084;23;20203;-83
2021/03/21 04:36:23;;;;;;;0.50;0.50;;;5.00;99.90;;;;;;6088529;23;20186;-83
2021/03/21 04:38:54;;;;;;;0.50;0.50;;;5.00;99.90;;;;;;6088245;23;20233;-83
2021/03/21 04:41:24;;;;;;;0.50;0.50;;;5.00;99.90;;;;;;6088433;23;20171;-83
2021/03/21 04:43:56;;;;;;;0.50;0.50;;;5.00;99.90;;;;;;6088400;23;20191;-83
2021/03/21 04:46:26;;;;;;;0.50;0.50;;;5.00;99.90;;;;;;6088689;23;20171;-83
2021/03/21 04:48:54;;;;;;;0.50;0.50;;;5.00;99.90;;;;;;6088378;23;20176;-83
2021/03/21 04:51:24;;;;;;;0.50;0.50;;;5.00;99.90;;;;;;6088669;23;20207;-83
2021/03/21 04:53:54;;;;;;;0.50;0.50;;;5.00;99.90;;;;;;6088969;23;20207;-83
2021/03/21 04:56:26;;;;;;;0.50;0.50;;;5.00;99.90;;;;;;6088445;23;20265;-83
2021/03/21 04:58:57;;;;;;;0.50;0.50;;;4.90;99.90;;;;;;6088451;23;20164;-84
2021/03/21 05:01:26;;;;;;;0.50;0.50;;;5.00;99.90;;;;;;6089006;23;20183;-84
2021/03/21 05:04:00;;;;;;;0.50;0.50;;;5.00;99.90;;;;;;6093597;23;20624;-83
2021/03/21 05:06:40;;;;;;;0.50;0.50;;;5.00;99.90;;;;;;6107933;23;20139;-83
2021/03/21 05:09:15;;;;;;;0.50;0.50;;;5.00;99.90;;;;;;6089133;23;20163;-83
2021/03/21 05:11:44;;;;;;;0.50;0.50;;;5.00;99.90;;;;;;6088983;23;20163;-83
2021/03/21 05:14:23;;;;;;;0.50;0.50;;;5.00;99.90;;;;;;6088285;23;20214;-82
2021/03/21 05:17:00;;;;;;;0.50;0.50;;;5.00;99.90;;;;;;6089027;23;20167;-83
2021/03/21 05:19:36;;;;;;;0.50;0.50;;;5.00;99.90;;;;;;6091202;23;20167;-83
2021/03/21 05:22:08;;;;;;;0.50;0.50;;;4.90;99.90;;;;;;6088285;23;20253;-83
2021/03/21 05:24:41;;;;;;;0.50;0.50;;;4.90;99.90;;;;;;6088412;23;20160;-82
2021/03/21 05:27:14;;;;;;;0.60;0.60;;;4.90;99.90;;;;;;6088265;23;20831;-83
2021/03/21 05:29:53;;;;;;;0.50;0.50;;;4.90;99.90;;;;;;6088728;23;20612;-82
2021/03/21 05:32:21;;;;;;;0.50;0.50;;;5.00;99.90;;;;;;6089455;23;20167;-83
2021/03/21 05:34:52;;;;;;;0.50;0.50;;;5.00;99.90;;;;;;6088584;23;20199;-83
2021/03/21 05:37:28;;;;;;;0.50;0.50;;;5.00;99.90;;;;;;6091255;23;20687;-82
2021/03/21 05:40:13;;;;;;;0.50;0.50;;;5.00;99.90;;;;;;6097724;23;20213;-83
2021/03/21 05:43:14;;;;;;;0.50;0.50;;;5.00;99.90;;;;;;6088214;23;20168;-83
2021/03/21 05:46:17;;;;;;;0.50;0.50;;;5.00;99.90;;;;;;6089029;23;20187;-83
2021/03/21 05:49:27;;;;;;;0.50;0.50;;;5.00;99.90;;;;;;6089717;23;20186;-83
2021/03/21 05:52:18;;;;;;;0.50;0.50;;;4.90;99.90;;;;;;6088816;23;20203;-82
2021/03/21 05:55:27;;;;;;;0.50;0.50;;;4.90;99.90;;;;;;6093825;23;20183;-83
2021/03/21 05:58:14;;;;;;;0.50;0.50;;;4.80;99.90;;;;;;6140922;23;20202;-83
2021/03/21 06:01:06;;;;;;;0.50;0.50;;;4.70;99.90;;;;;;6128432;23;20201;-84
2021/03/21 06:04:21;;;;;;;0.50;0.50;;;4.60;99.90;;;;;;6134961;23;20174;-83
2021/03/21 06:09:51;;;;;;;0.60;0.60;;;4.50;99.90;;;;;;6120024;22;20281;-83
2021/03/21 06:31:40;;;;;;;;;;;;;;;;;;;;;
2021/03/21 06:34:40;;;;;;;0.50;0.50;;;4.50;99.90;;;;;;6044531;23;20219;-83
2021/03/21 06:37:25;;;;;;;0.50;0.50;;;4.70;99.90;;;;;;6028735;23;20735;-82
2021/03/21 06:40:22;;;;;;;0.52;0.52;;;5.60;99.90;;;;;;6050450;23;20210;-82
2021/03/21 07:09:20;;;;;;;0.60;0.60;;;4.50;99.90;;;;;;6097449;23;20192;-83
2021/03/21 07:12:17;;;;;;;0.50;0.50;;;6.40;99.90;;;;;;6031618;23;20219;-82
2021/03/21 07:15:16;;;;;;;0.60;0.60;;;4.50;99.90;;;;;;6069857;23;20279;-82
2021/03/21 07:18:27;;;;;;;0.52;0.52;;;4.50;99.90;;;;;;6089005;23;20190;-82
2021/03/21 07:21:35;;;;;;;0.60;0.60;;;4.50;99.90;;;;;;6078052;23;20183;-82
2021/03/21 07:24:41;;;;;;;0.60;0.60;;;4.50;99.90;;;;;;6089526;23;20190;-82
2021/03/21 07:27:36;;;;;;;0.60;0.60;;;4.50;99.90;;;;;;6090994;23;20178;-83
2021/03/21 07:33:14;;;;;;;0.60;0.60;;;4.50;99.90;;;;;;6090408;23;20184;-82
2021/03/21 08:01:30;;;;;;;0.50;0.50;;;4.00;99.90;;;;;;6105372;22;20447;-84
2021/03/21 08:07:35;;;;;;;0.60;0.60;;;4.90;99.90;;;;;;6068775;22;20839;-85
2021/03/21 08:14:07;;;;;;;;;;;;;;;;;;;;;
2021/03/21 08:16:46;;;;;;;0.60;0.60;;;5.40;99.90;;;;;;6079387;23;20180;-82
2021/03/21 08:19:32;;;;;;;0.60;0.60;;;4.80;99.90;;;;;;6084734;23;20187;-84
2021/03/21 08:22:33;;;;;;;;;;;;;;;;;;;;;
2021/03/21 08:25:04;;;;;;;0.60;0.60;;;5.10;99.90;;;;;;6072852;23;20212;-82
2021/03/21 08:27:33;;;;;;;0.60;0.60;;;5.30;99.90;;;;;;6062835;23;20203;-83
2021/03/21 08:30:03;;;;;;;0.50;0.50;;;5.10;99.90;;;;;;6072744;23;20211;-83
2021/03/21 08:32:51;;;;;;;0.50;0.50;;;5.40;99.90;;;;;;6065771;23;20180;-83
2021/03/21 08:35:36;;;;;;;;;;;;;;;;;;;;;
2021/03/21 08:38:35;;;;;;;0.52;0.52;;;5.70;99.90;;;;;;6078279;23;20172;-84
2021/03/21 08:49:18;;;;;;;0.50;0.50;;;5.80;99.90;;;;;;6092754;23;20546;-82
2021/03/21 08:52:00;;;;;;;;;;;;;;;;;;;;;
2021/03/21 08:55:04;;;;;;;;;;;;;;;;;;;;;
2021/03/21 08:57:41;;;;;;;0.60;0.60;;;6.20;99.90;;;;;;6046649;23;20176;-84
2021/03/21 09:00:22;;;;;;;0.60;0.60;;;7.60;99.90;;;;;;6059123;23;20175;-84
2021/03/21 09:02:58;;;;;;;0.60;0.60;;;6.30;99.90;;;;;;6059137;23;20168;-83
2021/03/21 09:05:28;;;;;;;0.60;0.60;;;5.80;99.90;;;;;;6075018;23;20493;-85
2021/03/21 09:08:17;;;;;;;0.60;0.60;;;6.30;99.90;;;;;;6077550;23;20210;-85
2021/03/21 09:10:55;;;;;;;0.60;0.60;;;5.20;99.90;;;;;;6081898;23;20519;-86
2021/03/21 09:13:37;;;;;;;0.60;0.60;;;7.40;99.90;;;;;;6077943;23;20188;-85
2021/03/21 09:16:14;;;;;;;0.60;0.60;;;9.70;99.90;;;;;;6074812;23;20235;-84
2021/03/21 09:18:47;;;;;;;0.60;0.60;;;7.20;99.90;;;;;;6080516;23;20660;-85
2021/03/21 09:21:35;;;;;;;0.60;0.60;;;5.90;99.90;;;;;;6095701;22;20219;-85
2021/03/21 09:37:35;;;;;;;0.50;0.50;;;8.00;99.90;;;;;;6151698;22;20191;-82
2021/03/21 09:45:32;;;;;;;0.60;0.60;;;7.10;99.90;;;;;;6101929;23;20495;-86
2021/03/21 09:48:00;;;;;;;0.60;0.60;;;7.40;99.90;;;;;;6112527;22;20163;-82
2021/03/21 09:50:51;;;;;;;0.60;0.60;;;6.80;99.90;;;;;;6110608;22;20222;-84
2021/03/21 09:56:13;;;;;;;0.60;0.60;;;7.20;99.90;;;;;;6097802;22;20245;-84
2021/03/21 09:58:54;;;;;;;0.50;0.50;;;5.30;99.90;;;;;;6099363;23;20168;-82
2021/03/21 10:01:30;;;;;;;0.60;0.60;;;8.50;99.90;;;;;;6105659;22;20198;-88
2021/03/21 10:04:28;;;;;;;0.60;0.60;;;7.20;99.90;;;;;;6105334;23;20174;-89
2021/03/21 10:07:01;;;;;;;0.60;0.60;;;9.00;99.90;;;;;;6093221;22;20207;-83
2021/03/21 10:20:13;;;;;;;0.60;0.60;;;7.40;99.90;;;;;;6097682;22;20646;-86
2021/03/21 10:23:17;;;;;;;0.60;0.60;;;7.40;99.90;;;;;;6090470;23;20175;-87
2021/03/21 10:25:59;;;;;;;0.60;0.60;;;7.40;99.90;;;;;;6091271;23;20171;-86
2021/03/21 10:31:49;;;;;;;0.60;0.60;;;6.10;99.90;;;;;;6090447;23;20641;-86
2021/03/21 10:37:58;;;;;;;0.60;0.60;;;7.40;99.90;;;;;;6090987;23;20191;-87
2021/03/21 10:44:05;;;;;;;0.55;0.55;;;7.20;99.90;;;;;;6058164;23;20547;-87
2021/03/21 10:47:16;;;;;;;;;;;;;;;;;;;;;
2021/03/21 10:49:54;;;;;;;0.60;0.60;;;9.10;99.90;;;;;;6038572;23;20179;-87
2021/03/21 10:52:32;;;;;;;0.60;0.60;;;7.70;99.90;;;;;;6088045;23;20723;-87
2021/03/21 11:08:15;;;;;;;0.60;0.60;;;8.10;99.90;;;;;;6106060;23;20183;-85
2021/03/21 11:11:12;;;;;;;0.50;0.50;;;9.20;99.90;;;;;;5971245;23;20182;-86
2021/03/21 11:13:49;;;;;;;0.60;0.60;;;8.90;99.90;;;;;;5897082;24;20234;-86
2021/03/21 12:01:48;;;;;;;0.60;0.60;;;9.40;99.90;;;;;;6104731;23;20260;-86
2021/03/21 12:04:23;;;;;;;0.60;0.60;;;11.20;99.90;;;;;;6094390;22;20211;-81
2021/03/21 12:07:01;;;;;;;;;;;;;;;;;;;;;
2021/03/21 12:09:32;;;;;;;0.55;0.55;;;9.20;99.90;;;;;;6088000;23;20533;-84
2021/03/21 12:12:01;;;;;;;0.60;0.60;;;9.60;99.90;;;;;;6088244;23;20205;-84
2021/03/21 12:14:43;;;;;;;0.60;0.60;;;10.30;99.90;;;;;;6087889;23;20206;-84
2021/03/21 12:17:33;;;;;;;0.60;0.60;;;9.30;99.90;;;;;;6087204;23;20815;-84
2021/03/21 12:20:26;;;;;;;0.60;0.60;;;8.20;99.90;;;;;;6087002;23;20171;-84
2021/03/21 12:22:52;;;;;;;0.60;0.60;;;9.00;99.90;;;;;;6086965;23;20175;-84
2021/03/21 12:25:22;;;;;;;0.60;0.60;;;9.20;99.90;;;;;;6086384;23;20518;-84
2021/03/21 12:27:54;;;;;;;0.60;0.60;;;9.80;99.90;;;;;;6092614;23;20187;-84
2021/03/21 12:30:30;;;;;;;0.60;0.60;;;10.10;99.90;;;;;;6094755;23;20167;-86
2021/03/21 12:33:14;;;;;;;0.52;0.52;;;12.00;99.90;;;;;;6087542;23;20174;-83
2021/03/21 12:35:42;;;;;;;0.60;0.60;;;11.10;99.90;;;;;;6088191;23;20159;-83
2021/03/21 12:38:24;;;;;;;0.60;0.60;;;10.80;99.90;;;;;;6088181;23;20237;-83
2021/03/21 12:40:50;;;;;;;0.60;0.60;;;10.50;99.90;;;;;;6087622;23;20270;-84
2021/03/21 12:43:23;;;;;;;0.60;0.60;;;10.30;99.90;;;;;;6087599;23;20175;-83
2021/03/21 12:46:01;;;;;;;0.60;0.60;;;12.30;99.90;;;;;;6088667;23;20225;-84
2021/03/21 12:48:28;;;;;;;0.60;0.60;;;10.60;99.90;;;;;;6087550;23;20182;-83
2021/03/21 12:50:55;;;;;;;0.60;0.60;;;10.70;99.90;;;;;;6087087;23;20256;-83
2021/03/21 12:53:27;;;;;;;0.60;0.60;;;10.80;99.90;;;;;;6087472;23;20187;-83
2021/03/21 12:55:56;;;;;;;0.60;0.60;;;11.00;99.90;;;;;;6088582;23;20191;-83
2021/03/21 12:58:22;;;;;;;0.60;0.60;;;12.20;99.90;;;;;;6091212;23;20208;-84
2021/03/21 13:00:50;;;;;;;0.50;0.50;;;10.70;99.90;;;;;;6090637;23;20258;-84
2021/03/21 13:03:49;;;;;;;0.60;0.60;;;11.10;99.90;;;;;;6091528;23;20175;-85
2021/03/21 13:06:17;;;;;;;0.50;0.50;;;11.70;99.90;;;;;;6109272;22;20605;-85
2021/03/21 13:08:54;;;;;;;0.60;0.60;;;11.30;99.90;;;;;;6126837;23;20182;-85
2021/03/21 13:11:20;;;;;;;0.60;0.60;;;11.10;99.90;;;;;;6133436;23;20166;-86
2021/03/21 13:13:59;;;;;;;0.60;0.60;;;11.00;99.90;;;;;;6137215;23;20205;-86
2021/03/21 13:16:25;;;;;;;0.60;0.60;;;11.00;99.90;;;;;;6138810;23;20185;-85
2021/03/21 13:21:41;;;;;;;0.60;0.60;;;10.60;99.90;;;;;;6093230;22;20215;-83
2021/03/21 13:24:12;;;;;;;0.60;0.60;;;11.80;99.90;;;;;;6082576;22;20212;-84
2021/03/21 13:26:38;;;;;;;0.60;0.60;;;10.60;99.90;;;;;;6103697;22;20175;-79
2021/03/21 13:29:04;;;;;;;0.60;0.60;;;11.00;99.90;;;;;;6089285;23;20571;-79
2021/03/21 13:31:30;;;;;;;0.60;0.60;;;11.00;99.90;;;;;;6085862;23;20191;-79
2021/03/21 13:33:56;;;;;;;0.60;0.60;;;11.20;99.90;;;;;;6085878;23;20203;-79
2021/03/21 13:36:25;;;;;;;0.60;0.60;;;11.50;99.90;;;;;;6096378;23;20178;-82
2021/03/21 13:38:56;;;;;;;0.60;0.60;;;11.10;99.90;;;;;;6096087;23;20190;-82
2021/03/21 14:00:00;;;;;;;0.60;0.60;;;9.90;99.90;;;;;;6075392;22;20214;-85
2021/03/21 14:02:27;;;;;;;0.60;0.60;;;10.40;99.90;;;;;;6099276;23;20178;-86
2021/03/21 14:04:53;;;;;;;0.50;0.50;;;9.50;99.90;;;;;;6096237;23;20486;-87
2021/03/21 14:07:19;;;;;;;0.60;0.60;;;9.70;99.90;;;;;;6090945;23;20206;-88
2021/03/21 14:09:46;;;;;;;0.60;0.60;;;10.10;99.90;;;;;;6088028;23;20438;-88
2021/03/21 14:12:13;;;;;;;0.60;0.60;;;10.10;99.90;;;;;;6088945;23;20180;-87
2021/03/21 14:14:39;;;;;;;0.60;0.60;;;10.40;99.90;;;;;;6089147;23;20203;-88
2021/03/21 14:17:07;;;;;;;0.60;0.60;;;9.70;99.90;;;;;;6089120;23;20480;-87
2021/03/21 14:19:33;;;;;;;0.60;0.60;;;9.90;99.90;;;;;;6088973;23;20381;-88
2021/03/21 14:21:59;;;;;;;0.60;0.60;;;9.60;99.90;;;;;;6088698;23;20251;-87
2021/03/21 14:24:29;;;;;;;0.60;0.60;;;9.70;99.90;;;;;;6088532;23;20184;-88
2021/03/21 14:26:58;;;;;;;0.60;0.60;;;10.10;99.90;;;;;;6091384;22;20245;-90
2021/03/21 14:29:33;;;;;;;0.60;0.60;;;10.10;99.90;;;;;;6100775;23;20178;-86
2021/03/21 14:31:59;;;;;;;0.60;0.60;;;9.80;99.90;;;;;;6089820;23;20194;-87
2021/03/21 14:34:27;;;;;;;0.60;0.60;;;10.20;99.90;;;;;;6087752;23;20749;-87
2021/03/21 14:36:53;;;;;;;0.60;0.60;;;10.40;99.90;;;;;;6088582;23;20513;-87
2021/03/21 14:39:20;;;;;;;0.60;0.60;;;10.70;99.90;;;;;;6087265;23;20611;-87
2021/03/21 14:41:50;;;;;;;0.60;0.60;;;10.10;99.90;;;;;;6088169;23;20651;-87
2021/03/21 14:44:17;;;;;;;0.60;0.60;;;9.40;99.90;;;;;;6087818;23;20183;-88
2021/03/21 14:46:46;;;;;;;0.60;0.60;;;9.70;99.90;;;;;;6088463;23;20203;-87
2021/03/21 14:49:12;;;;;;;0.60;0.60;;;9.70;99.90;;;;;;6087750;23;20171;-87
2021/03/21 14:51:42;;;;;;;0.60;0.60;;;9.10;99.90;;;;;;6089011;23;20257;-87
2021/03/21 14:54:09;;;;;;;0.60;0.60;;;10.00;99.90;;;;;;6086820;23;20210;-87
2021/03/21 14:56:38;;;;;;;0.60;0.60;;;9.90;99.90;;;;;;6088865;23;20762;-88
2021/03/21 14:59:08;;;;;;;0.60;0.60;;;11.00;99.90;;;;;;6088211;23;20187;-87
2021/03/21 15:01:36;;;;;;;0.60;0.60;;;9.60;99.90;;;;;;6088260;23;20172;-87
2021/03/21 15:04:03;;;;;;;0.60;0.60;;;11.00;99.90;;;;;;6087410;23;20175;-86
2021/03/21 15:06:29;;;;;;;0.60;0.60;;;9.70;99.90;;;;;;6088918;23;20214;-87
2021/03/21 15:09:00;;;;;;;0.60;0.60;;;9.60;99.90;;;;;;6087808;23;20195;-87
2021/03/21 15:11:29;;;;;;;0.60;0.60;;;10.80;99.90;;;;;;6088069;23;20205;-87
2021/03/21 15:13:55;;;;;;;0.60;0.60;;;9.50;99.90;;;;;;6089175;23;20202;-87
2021/03/21 15:16:22;;;;;;;0.60;0.60;;;9.50;99.90;;;;;;6087565;23;20198;-87
2021/03/21 15:18:48;;;;;;;0.60;0.60;;;9.60;99.90;;;;;;6087805;23;20182;-86
2021/03/21 15:21:16;;;;;;;0.60;0.60;;;10.20;99.90;;;;;;6088503;23;20463;-88
2021/03/21 15:23:44;;;;;;;0.60;0.60;;;9.20;99.90;;;;;;6087998;23;20179;-87
2021/03/21 15:26:14;;;;;;;0.57;0.57;;;9.10;99.90;;;;;;6086333;23;20241;-86
2021/03/21 15:28:49;;;;;;;0.60;0.60;;;9.40;99.90;;;;;;6088249;23;20210;-86
2021/03/21 15:31:22;;;;;;;0.60;0.60;;;9.00;99.90;;;;;;6087788;23;20191;-87
2021/03/21 15:36:44;;;;;;;0.60;0.60;;;9.00;99.90;;;;;;6104382;22;20229;-88
2021/03/21 16:39:32;;;;;;;0.60;0.60;;;8.20;99.90;;;;;;6071508;22;20260;-86
2021/03/21 16:41:58;;;;;;;0.50;0.50;;;8.10;99.90;;;;;;6102885;23;20167;-81
2021/03/21 16:44:35;;;;;;;0.60;0.60;;;9.50;99.90;;;;;;6110037;22;20183;-85
2021/03/21 16:47:02;;;;;;;0.60;0.60;;;8.10;99.90;;;;;;6099090;23;20174;-83
2021/03/21 16:49:31;;;;;;;0.60;0.60;;;8.00;99.90;;;;;;6089335;23;20186;-84
2021/03/21 16:51:58;;;;;;;0.60;0.60;;;7.90;99.90;;;;;;6087556;23;20210;-84
2021/03/21 16:54:24;;;;;;;0.50;0.50;;;7.90;99.90;;;;;;6085079;23;20669;-83
2021/03/21 16:56:51;;;;;;;0.60;0.60;;;7.80;99.90;;;;;;6087520;23;20644;-83
2021/03/21 16:59:17;;;;;;;0.60;0.60;;;7.80;99.90;;;;;;6087294;23;20229;-84
2021/03/21 17:01:45;;;;;;;0.60;0.60;;;7.80;99.90;;;;;;6087847;23;20179;-84
2021/03/21 17:04:11;;;;;;;0.60;0.60;;;7.70;99.90;;;;;;6088210;23;20179;-81
2021/03/21 17:06:38;;;;;;;0.60;0.60;;;7.70;99.90;;;;;;6088448;23;20710;-81
2021/03/21 17:09:04;;;;;;;0.60;0.60;;;7.60;99.90;;;;;;6087519;23;20179;-80
2021/03/21 17:11:30;;;;;;;0.60;0.60;;;7.50;99.90;;;;;;6087493;23;20261;-81
2021/03/21 17:13:57;;;;;;;0.60;0.60;;;7.50;99.90;;;;;;6087584;23;20379;-81
2021/03/21 17:16:24;;;;;;;0.55;0.55;;;8.00;99.90;;;;;;6087480;23;20187;-80
2021/03/21 17:18:50;;;;;;;0.60;0.60;;;7.30;99.90;;;;;;6084101;23;20206;-80
2021/03/21 17:21:16;;;;;;;0.57;0.57;;;7.30;99.90;;;;;;6087185;23;20229;-81
2021/03/21 17:23:42;;;;;;;0.52;0.52;;;7.20;99.90;;;;;;6086652;23;20210;-81
2021/03/21 17:26:09;;;;;;;0.50;0.50;;;7.10;99.90;;;;;;6085845;23;20517;-81
2021/03/21 17:28:36;;;;;;;0.60;0.60;;;7.00;99.90;;;;;;6087726;23;20209;-81
2021/03/21 17:31:04;;;;;;;0.60;0.60;;;6.90;99.90;;;;;;6087512;23;20266;-81
2021/03/21 17:33:30;;;;;;;0.50;0.50;;;6.80;99.90;;;;;;6085298;23;20183;-82
2021/03/21 17:36:03;;;;;;;0.60;0.60;;;6.70;99.90;;;;;;6086730;23;20296;-86
2021/03/21 17:38:30;;;;;;;0.60;0.60;;;6.60;99.90;;;;;;6087904;23;20504;-81
2021/03/21 17:40:56;;;;;;;0.60;0.60;;;6.60;99.90;;;;;;6085327;23;20210;-80
2021/03/21 17:43:23;;;;;;;0.60;0.60;;;6.50;99.90;;;;;;6086932;23;20190;-81
2021/03/21 17:45:51;;;;;;;0.60;0.60;;;6.40;99.90;;;;;;6087583;23;20179;-81
2021/03/21 17:48:19;;;;;;;0.60;0.60;;;6.30;99.90;;;;;;6087369;23;20519;-80
2021/03/21 17:50:48;;;;;;;0.57;0.57;;;6.30;99.90;;;;;;6087005;23;20199;-82
2021/03/21 17:53:21;;;;;;;0.60;0.60;;;6.10;99.90;;;;;;6086408;23;20233;-82
2021/03/21 17:55:48;;;;;;;0.60;0.60;;;6.00;99.90;;;;;;6086531;23;20253;-82
2021/03/21 17:58:14;;;;;;;0.57;0.57;;;6.00;99.90;;;;;;6086844;23;20558;-82
2021/03/21 18:00:40;;;;;;;0.60;0.60;;;6.00;99.90;;;;;;6086781;23;20506;-82
2021/03/21 18:03:07;;;;;;;0.60;0.60;;;6.00;99.90;;;;;;6086831;23;20179;-82
2021/03/21 18:05:34;;;;;;;0.60;0.60;;;6.00;99.90;;;;;;6087239;23;20506;-82
2021/03/21 18:08:01;;;;;;;0.60;0.60;;;5.90;99.90;;;;;;6086568;23;20192;-81
2021/03/21 18:10:28;;;;;;;0.60;0.60;;;5.90;99.90;;;;;;6087252;23;20404;-80
2021/03/21 18:12:54;;;;;;;0.50;0.50;;;5.80;99.90;;;;;;6086764;23;20566;-81
2021/03/21 18:15:25;;;;;;;0.60;0.60;;;5.60;99.90;;;;;;6086742;23;20199;-82
2021/03/21 18:17:51;;;;;;;0.60;0.60;;;5.70;99.90;;;;;;6086936;23;20664;-82
2021/03/21 18:20:20;;;;;;;0.60;0.60;;;5.70;99.90;;;;;;6087108;23;20191;-81
2021/03/21 18:22:50;;;;;;;0.50;0.50;;;5.60;99.90;;;;;;6087368;23;20186;-82
2021/03/21 18:25:17;;;;;;;0.60;0.60;;;5.60;99.90;;;;;;6085832;23;20183;-81
2021/03/21 18:27:44;;;;;;;0.60;0.60;;;5.50;99.90;;;;;;6086862;23;20183;-81
2021/03/21 18:30:13;;;;;;;0.60;0.60;;;5.50;99.90;;;;;;6086527;23;20436;-81
2021/03/21 18:32:40;;;;;;;0.60;0.60;;;5.50;99.90;;;;;;6086011;23;20698;-82
2021/03/21 18:35:08;;;;;;;0.52;0.52;;;5.40;99.90;;;;;;6086497;23;20203;-81
2021/03/21 18:37:34;;;;;;;0.60;0.60;;;5.40;99.90;;;;;;6088666;23;20183;-83
2021/03/21 18:40:02;;;;;;;0.60;0.60;;;5.30;99.90;;;;;;6093332;23;20211;-84
2021/03/21 18:42:29;;;;;;;0.60;0.60;;;5.30;99.90;;;;;;6098735;23;20689;-84
2021/03/21 18:44:56;;;;;;;0.60;0.60;;;5.20;99.90;;;;;;6089067;23;20268;-83
2021/03/21 18:47:23;;;;;;;0.50;0.50;;;5.10;99.90;;;;;;6086810;23;20179;-83
2021/03/21 18:49:49;;;;;;;0.50;0.50;;;5.10;99.90;;;;;;6086679;23;20229;-83
2021/03/21 18:52:15;;;;;;;0.60;0.60;;;5.10;99.90;;;;;;6086423;23;20199;-83
2021/03/21 18:54:43;;;;;;;0.60;0.60;;;5.00;99.90;;;;;;6085805;23;20572;-84
2021/03/21 18:57:09;;;;;;;0.60;0.60;;;5.00;99.90;;;;;;6086085;23;20411;-84
2021/03/21 18:59:36;;;;;;;0.60;0.60;;;4.90;99.90;;;;;;6086303;23;20631;-83
2021/03/21 19:02:02;;;;;;;0.60;0.60;;;4.90;99.90;;;;;;6086807;23;20262;-83
2021/03/21 19:04:28;;;;;;;0.60;0.60;;;4.90;99.90;;;;;;6086429;23;20186;-84
2021/03/21 19:06:55;;;;;;;0.60;0.60;;;4.90;99.90;;;;;;6086661;23;20558;-82
2021/03/21 19:09:22;;;;;;;0.60;0.60;;;4.80;99.90;;;;;;6085890;23;20212;-83
2021/03/21 19:12:07;;;;;;;0.60;0.60;;;4.80;99.90;;;;;;6096964;23;20183;-85
2021/03/21 19:14:38;;;;;;;0.60;0.60;;;4.70;99.90;;;;;;6094804;22;20207;-82
2021/03/21 19:17:07;;;;;;;0.57;0.57;;;6.20;99.90;;;;;;6089037;23;20176;-83
2021/03/21 19:19:33;;;;;;;0.60;0.60;;;4.60;99.90;;;;;;6089987;23;20175;-83
2021/03/21 19:21:59;;;;;;;0.60;0.60;;;4.50;99.90;;;;;;6072015;23;20719;-84
2021/03/21 19:24:26;;;;;;;0.60;0.60;;;4.50;99.90;;;;;;6073230;23;20448;-83
2021/03/21 19:26:54;;;;;;;0.50;0.50;;;4.50;99.90;;;;;;6084457;23;20194;-83
2021/03/21 19:29:23;;;;;;;0.60;0.60;;;4.30;99.90;;;;;;6085024;23;20187;-83
2021/03/21 19:31:50;;;;;;;0.60;0.60;;;4.30;99.90;;;;;;6086373;23;20183;-83
2021/03/21 19:34:17;;;;;;;0.57;0.57;;;4.30;99.90;;;;;;6084837;23;20203;-83
2021/03/21 19:36:43;;;;;;;0.57;0.57;;;4.30;99.90;;;;;;6085229;23;20187;-82
2021/03/21 19:39:10;;;;;;;0.60;0.60;;;4.30;99.90;;;;;;6084297;23;20183;-83
2021/03/21 19:41:37;;;;;;;0.60;0.60;;;4.20;99.90;;;;;;6086132;23;20190;-83
2021/03/21 19:44:04;;;;;;;0.60;0.60;;;4.10;99.90;;;;;;6084861;23;20233;-83
2021/03/21 19:46:31;;;;;;;0.50;0.50;;;4.10;99.90;;;;;;6082978;23;20554;-83
2021/03/21 19:48:58;;;;;;;0.60;0.60;;;4.10;99.90;;;;;;6085123;23;20179;-83
2021/03/21 19:51:24;;;;;;;0.57;0.57;;;4.10;99.90;;;;;;6084853;23;20207;-83
2021/03/21 19:53:51;;;;;;;0.60;0.60;;;4.00;99.90;;;;;;6085968;23;20179;-83
2021/03/21 19:56:17;;;;;;;0.57;0.57;;;4.00;99.90;;;;;;6084944;23;20202;-83
2021/03/21 19:58:47;;;;;;;0.50;0.50;;;4.00;99.90;;;;;;6084800;23;20187;-83
2021/03/21 20:01:16;;;;;;;0.50;0.50;;;4.40;99.90;;;;;;6084770;23;20571;-83
2021/03/21 20:03:42;;;;;;;0.60;0.60;;;3.90;99.90;;;;;;6085552;23;20636;-83
2021/03/21 20:06:09;;;;;;;0.60;0.60;;;3.90;99.90;;;;;;6084746;23;20662;-83
2021/03/21 20:08:35;;;;;;;0.60;0.60;;;3.90;99.90;;;;;;6084807;23;20191;-83
2021/03/21 20:11:01;;;;;;;0.57;0.57;;;3.80;99.90;;;;;;6084728;23;20201;-83
2021/03/21 20:13:27;;;;;;;0.60;0.60;;;3.80;99.90;;;;;;6085028;23;20187;-83
2021/03/21 20:15:54;;;;;;;0.60;0.60;;;3.70;99.90;;;;;;6088363;23;20542;-85
2021/03/21 20:18:21;;;;;;;0.60;0.60;;;3.70;99.90;;;;;;6095100;22;20179;-83
2021/03/21 20:20:48;;;;;;;0.60;0.60;;;3.70;99.90;;;;;;6085272;23;20601;-82
2021/03/21 20:23:15;;;;;;;0.60;0.60;;;3.60;99.90;;;;;;6080967;23;20195;-80
2021/03/21 20:25:44;;;;;;;0.60;0.60;;;3.60;99.90;;;;;;6083138;23;20559;-84
2021/03/21 20:28:12;;;;;;;0.60;0.60;;;3.60;99.90;;;;;;6084842;23;20322;-81
2021/03/21 20:30:40;;;;;;;0.60;0.60;;;3.60;99.90;;;;;;6082064;23;20285;-82
2021/03/21 20:33:07;;;;;;;0.60;0.60;;;3.60;99.90;;;;;;6085404;23;20261;-82
2021/03/21 20:35:35;;;;;;;0.60;0.60;;;3.60;99.90;;;;;;6085120;23;20199;-83
2021/03/21 20:38:03;;;;;;;0.60;0.60;;;3.60;99.90;;;;;;6085644;23;20180;-83